createdAt,value
2022-08-18T00:02:02.815Z,25.55
2022-08-18T00:04:35.563Z,25.51
2022-08-18T00:07:05.628Z,25.38
2022-08-18T00:09:34.813Z,25.52
2022-08-18T00:12:03.842Z,25.77
2022-08-18T00:14:31.369Z,25.88
2022-08-18T00:16:59.024Z,25.95
2022-08-18T00:19:47.014Z,25.84
2022-08-18T00:22:16.049Z,25.87
2022-08-18T00:24:47.695Z,25.89
2022-08-18T00:27:22.947Z,25.77
2022-08-18T00:29:51.901Z,25.98
2022-08-18T00:32:24.649Z,25.95
2022-08-18T00:34:52.859Z,25.62
2022-08-18T00:37:21.188Z,25.32
2022-08-18T00:39:51.523Z,25.43
2022-08-18T00:42:30.573Z,25.48
2022-08-18T00:45:02.670Z,25.71
2022-08-18T00:47:41.177Z,25.36
2022-08-18T00:50:24.498Z,25.47
2022-08-18T00:53:01.028Z,24.88
2022-08-18T00:55:29.339Z,25.19
2022-08-18T00:58:01.860Z,25.23
2022-08-18T01:00:29.627Z,25.02
2022-08-18T01:02:58.685Z,24.99
2022-08-18T01:05:30.614Z,24.98
2022-08-18T01:07:58.813Z,25.42
2022-08-18T01:10:26.214Z,25.05
2022-08-18T01:12:54.560Z,25.35
2022-08-18T01:15:29.164Z,25.56
2022-08-18T01:18:22.297Z,25.55
2022-08-18T01:21:14.642Z,25.44
2022-08-18T01:23:42.087Z,25.47
2022-08-18T01:26:10.069Z,25.55
2022-08-18T01:28:40.250Z,25.30
2022-08-18T01:31:09.108Z,24.76
2022-08-18T01:33:39.038Z,25.43
2022-08-18T01:36:18.065Z,25.68
2022-08-18T01:38:47.784Z,25.70
2022-08-18T01:41:26.677Z,25.99
2022-08-18T01:43:59.073Z,25.81
2022-08-18T01:46:28.279Z,25.73
2022-08-18T01:48:55.887Z,25.82
2022-08-18T01:51:38.913Z,25.76
2022-08-18T01:54:11.245Z,25.81
2022-08-18T01:56:38.949Z,25.93
2022-08-18T01:59:14.049Z,25.81
2022-08-18T02:01:53.085Z,25.76
2022-08-18T02:04:40.599Z,25.82
2022-08-18T02:07:09.626Z,25.92
2022-08-18T02:09:38.095Z,25.54
2022-08-18T02:12:07.068Z,25.69
2022-08-18T02:14:35.655Z,25.70
2022-08-18T02:17:04.166Z,25.79
2022-08-18T02:19:41.785Z,25.49
2022-08-18T02:22:10.382Z,25.28
2022-08-18T02:24:37.861Z,25.18
2022-08-18T02:27:05.710Z,25.31
2022-08-18T02:29:33.363Z,25.45
2022-08-18T02:32:00.730Z,25.46
2022-08-18T02:34:28.102Z,25.37
2022-08-18T02:36:55.983Z,25.14
2022-08-18T02:39:23.390Z,25.44
2022-08-18T02:41:51.564Z,25.39
2022-08-18T02:44:19.437Z,25.03
2022-08-18T02:46:46.923Z,25.07
2022-08-18T02:49:14.364Z,25.29
2022-08-18T02:51:41.998Z,25.16
2022-08-18T02:54:11.516Z,25.19
2022-08-18T02:56:41.904Z,25.12
2022-08-18T02:59:12.466Z,24.67
2022-08-18T03:01:41.782Z,24.72
2022-08-18T03:04:10.946Z,25.00
2022-08-18T03:06:39.161Z,24.68
2022-08-18T03:09:07.279Z,25.00
2022-08-18T03:11:35.074Z,24.76
2022-08-18T03:14:02.967Z,24.85
2022-08-18T03:16:32.820Z,25.13
2022-08-18T03:19:01.172Z,24.87
2022-08-18T03:21:30.248Z,24.74
2022-08-18T03:24:00.687Z,24.43
2022-08-18T03:26:29.961Z,24.75
2022-08-18T03:28:58.003Z,24.62
2022-08-18T03:31:28.021Z,24.77
2022-08-18T03:33:59.313Z,24.37
2022-08-18T03:36:29.430Z,23.97
2022-08-18T03:38:57.268Z,24.38
2022-08-18T03:41:58.734Z,24.54
2022-08-18T03:44:14.408Z,24.41
2022-08-18T03:46:43.134Z,24.54
2022-08-18T03:49:10.916Z,24.33
2022-08-18T03:51:39.015Z,24.44
2022-08-18T03:54:06.410Z,24.43
2022-08-18T03:56:38.075Z,24.69
2022-08-18T03:59:07.903Z,24.36
2022-08-18T04:01:40.902Z,24.31
2022-08-18T04:04:11.289Z,24.49
2022-08-18T04:06:42.034Z,24.63
2022-08-18T04:09:11.672Z,24.58
2022-08-18T04:11:39.751Z,24.68
2022-08-18T04:14:07.120Z,24.82
2022-08-18T04:16:38.392Z,24.80
2022-08-18T04:19:05.918Z,24.78
2022-08-18T04:21:34.700Z,24.67
2022-08-18T04:24:05.093Z,24.69
2022-08-18T04:26:33.099Z,24.72
2022-08-18T04:29:03.162Z,24.45
2022-08-18T04:31:31.021Z,24.84
2022-08-18T04:33:59.103Z,25.01
2022-08-18T04:36:26.662Z,25.00
2022-08-18T04:38:56.378Z,25.33
2022-08-18T04:41:27.823Z,25.24
2022-08-18T04:43:59.509Z,25.43
2022-08-18T04:46:27.250Z,25.35
2022-08-18T04:48:59.163Z,24.99
2022-08-18T04:52:22.474Z,25.02
2022-08-18T04:54:16.521Z,25.31
2022-08-18T04:56:44.170Z,25.50
2022-08-18T04:59:12.582Z,25.81
2022-08-18T05:01:47.834Z,25.72
2022-08-18T05:04:16.601Z,25.32
2022-08-18T05:06:44.602Z,25.09
2022-08-18T05:09:12.928Z,26.06
2022-08-18T05:11:51.075Z,25.84
2022-08-18T05:14:18.544Z,26.21
2022-08-18T05:16:47.838Z,26.41
2022-08-18T05:19:19.854Z,25.50
2022-08-18T05:21:50.898Z,26.47
2022-08-18T05:24:20.130Z,26.31
2022-08-18T05:26:51.255Z,26.26
2022-08-18T05:29:21.986Z,26.96
2022-08-18T05:31:51.810Z,26.47
2022-08-18T05:34:21.281Z,27.01
2022-08-18T05:36:48.609Z,27.17
2022-08-18T05:39:21.573Z,27.29
2022-08-18T05:42:09.426Z,26.96
2022-08-18T05:44:41.685Z,27.19
2022-08-18T05:47:12.199Z,27.56
2022-08-18T05:49:39.659Z,26.82
2022-08-18T05:52:08.458Z,27.50
2022-08-18T05:55:00.279Z,27.58
2022-08-18T05:57:28.811Z,28.05
2022-08-18T05:59:56.453Z,27.88
2022-08-18T06:02:30.366Z,27.40
2022-08-18T06:05:04.242Z,27.89
2022-08-18T06:07:50.412Z,28.40
2022-08-18T06:10:19.146Z,28.93
2022-08-18T06:12:49.404Z,28.84
2022-08-18T06:15:27.643Z,29.05
2022-08-18T06:18:21.594Z,28.65
2022-08-18T06:21:12.912Z,28.69
2022-08-18T06:23:49.366Z,28.67
2022-08-18T06:26:24.250Z,28.78
2022-08-18T06:29:03.157Z,29.14
2022-08-18T06:31:48.530Z,28.50
2022-08-18T06:34:15.963Z,28.53
2022-08-18T06:36:51.978Z,28.39
2022-08-18T06:39:51.759Z,28.90
2022-08-18T06:42:30.681Z,29.10
2022-08-18T06:45:02.921Z,29.34
2022-08-18T06:47:59.607Z,30.03
2022-08-18T06:50:59.283Z,29.57
2022-08-18T06:53:52.713Z,30.37
2022-08-18T06:56:26.904Z,30.35
2022-08-18T06:58:55.524Z,30.87
2022-08-18T07:01:23.783Z,30.72
2022-08-18T07:03:55.124Z,31.71
2022-08-18T07:06:22.567Z,32.02
2022-08-18T07:08:51.530Z,32.25
2022-08-18T07:11:20.779Z,33.76
2022-08-18T07:14:16.849Z,35.38
2022-08-18T07:17:00.781Z,36.84
2022-08-18T07:19:29.619Z,36.64
2022-08-18T07:22:02.812Z,38.12
2022-08-18T07:24:32.330Z,38.45
2022-08-18T07:27:00.358Z,38.23
2022-08-18T07:29:28.556Z,38.08
2022-08-18T07:31:56.204Z,41.64
2022-08-18T07:34:38.519Z,40.01
2022-08-18T07:37:14.517Z,40.91
2022-08-18T07:40:05.829Z,40.75
2022-08-18T07:43:00.825Z,39.64
2022-08-18T07:45:34.548Z,37.41
2022-08-18T07:48:39.651Z,39.38
2022-08-18T07:51:46.294Z,41.68
2022-08-18T07:54:50.192Z,41.29
2022-08-18T07:57:35.402Z,42.36
2022-08-18T08:00:54.824Z,41.35
2022-08-18T08:03:26.146Z,43.68
2022-08-18T08:05:56.142Z,45.41
2022-08-18T08:08:38.077Z,43.26
2022-08-18T08:11:27.410Z,45.95
2022-08-18T08:14:10.365Z,44.43
2022-08-18T08:16:48.398Z,47.39
2022-08-18T08:19:49.304Z,48.55
2022-08-18T08:22:20.670Z,45.60
2022-08-18T08:25:22.350Z,46.79
2022-08-18T08:28:03.076Z,46.20
2022-08-18T08:30:31.582Z,46.67
2022-08-18T08:33:24.925Z,45.56
2022-08-18T08:35:56.771Z,46.14
2022-08-18T08:38:54.089Z,48.10
2022-08-18T08:41:28.131Z,49.58
2022-08-18T08:44:21.479Z,48.62
2022-08-18T08:46:53.144Z,45.65
2022-08-18T08:49:38.799Z,47.22
2022-08-18T08:52:18.895Z,48.36
2022-08-18T08:55:03.465Z,49.38
2022-08-18T08:57:34.891Z,50.39
2022-08-18T09:00:04.125Z,50.29
2022-08-18T09:02:48.085Z,51.33
2022-08-18T09:05:19.499Z,51.28
2022-08-18T09:07:50.602Z,49.17
2022-08-18T09:10:29.081Z,47.32
2022-08-18T09:13:45.080Z,48.84
2022-08-18T09:16:24.693Z,47.15
2022-08-18T09:19:15.865Z,49.11
2022-08-18T09:22:06.883Z,47.97
2022-08-18T09:25:00.846Z,49.55
2022-08-18T09:28:09.305Z,49.02
2022-08-18T09:30:55.181Z,50.13
2022-08-18T09:33:32.326Z,51.99
2022-08-18T09:36:10.337Z,51.07
2022-08-18T09:39:04.180Z,49.38
2022-08-18T09:41:35.646Z,50.20
2022-08-18T09:46:59.307Z,48.46
2022-08-18T09:49:26.920Z,46.65
2022-08-18T09:51:58.795Z,44.85
2022-08-18T09:54:31.189Z,48.90
2022-08-18T09:57:20.870Z,48.81
2022-08-18T09:59:49.269Z,49.33
2022-08-18T10:02:28.457Z,50.19
2022-08-18T10:05:21.280Z,51.25
2022-08-18T10:07:50.364Z,48.72
2022-08-18T10:11:01.479Z,49.75
2022-08-18T10:13:24.939Z,51.16
2022-08-18T10:16:10.709Z,48.45
2022-08-18T10:18:56.930Z,49.35
2022-08-18T10:24:35.949Z,48.26
2022-08-18T10:27:07.308Z,49.56
2022-08-18T10:29:51.750Z,50.40
2022-08-18T10:32:24.715Z,49.03
2022-08-18T10:34:53.336Z,49.36
2022-08-18T10:37:39.086Z,50.16
2022-08-18T10:40:09.395Z,48.70
2022-08-18T10:42:54.185Z,49.10
2022-08-18T10:45:27.619Z,47.70
2022-08-18T10:48:05.005Z,45.16
2022-08-18T10:50:47.157Z,44.21
2022-08-18T10:53:44.477Z,43.42
2022-08-18T10:56:22.582Z,42.53
2022-08-18T10:59:19.404Z,41.36
2022-08-18T11:02:07.040Z,40.57
2022-08-18T11:04:47.415Z,40.34
2022-08-18T11:07:30.890Z,39.73
2022-08-18T11:10:29.342Z,38.68
2022-08-18T11:13:35.583Z,36.70
2022-08-18T11:16:13.707Z,36.95
2022-08-18T11:18:49.456Z,37.27
2022-08-18T11:21:42.065Z,36.38
2022-08-18T11:24:16.216Z,36.86
2022-08-18T11:26:53.154Z,37.03
2022-08-18T11:29:29.109Z,36.89
2022-08-18T11:32:04.193Z,36.96
2022-08-18T11:34:51.970Z,36.82
2022-08-18T11:37:27.447Z,36.76
2022-08-18T11:39:58.085Z,36.60
2022-08-18T11:42:33.470Z,36.31
2022-08-18T11:45:17.751Z,36.26
2022-08-18T11:48:11.441Z,36.49
2022-08-18T11:50:54.491Z,36.54
2022-08-18T11:53:37.352Z,36.53
2022-08-18T11:56:14.541Z,36.39
2022-08-18T11:58:50.516Z,36.10
2022-08-18T12:01:40.870Z,34.93
2022-08-18T12:04:21.893Z,35.11
2022-08-18T12:07:00.440Z,35.22
2022-08-18T12:10:17.237Z,35.21
2022-08-18T12:12:28.131Z,35.02
2022-08-18T12:15:04.942Z,35.56
2022-08-18T12:17:41.782Z,34.86
2022-08-18T12:22:57.905Z,35.63
2022-08-18T12:25:25.904Z,35.72
2022-08-18T12:27:54.300Z,35.93
2022-08-18T12:30:21.676Z,34.57
2022-08-18T12:32:56.303Z,35.22
2022-08-18T12:35:32.684Z,34.74
2022-08-18T12:40:50.314Z,35.51
2022-08-18T12:43:20.060Z,35.86
2022-08-18T12:45:47.708Z,35.56
2022-08-18T12:48:15.364Z,35.81
2022-08-18T12:50:54.583Z,36.02
2022-08-18T12:53:30.171Z,36.21
2022-08-18T12:56:17.115Z,35.74
2022-08-18T12:58:47.624Z,34.09
2022-08-18T13:01:17.639Z,35.08
2022-08-18T13:03:52.585Z,35.59
2022-08-18T13:06:36.291Z,35.82
2022-08-18T13:09:16.263Z,35.94
2022-08-18T13:11:51.721Z,35.92
2022-08-18T13:14:20.572Z,36.13
2022-08-18T13:16:53.969Z,36.11
2022-08-18T13:19:22.558Z,35.95
2022-08-18T13:21:51.542Z,35.82
2022-08-18T13:24:21.940Z,36.11
2022-08-18T13:26:49.927Z,36.17
2022-08-18T13:29:19.356Z,36.06
2022-08-18T13:31:55.314Z,36.02
2022-08-18T13:34:29.708Z,35.93
2022-08-18T13:36:57.704Z,35.99
2022-08-18T13:39:25.506Z,36.02
2022-08-18T13:42:01.486Z,36.13
2022-08-18T13:44:53.033Z,35.95
2022-08-18T13:47:22.343Z,36.28
2022-08-18T13:49:52.577Z,35.96
2022-08-18T13:52:36.172Z,35.38
2022-08-18T13:55:11.884Z,35.63
2022-08-18T13:57:41.820Z,35.84
2022-08-18T14:00:20.477Z,36.22
2022-08-18T14:02:58.931Z,35.90
2022-08-18T14:05:36.543Z,36.09
2022-08-18T14:08:19.473Z,36.07
2022-08-18T14:10:53.922Z,35.80
2022-08-18T14:13:24.561Z,35.81
2022-08-18T14:15:54.698Z,36.18
2022-08-18T14:18:29.118Z,35.84
2022-08-18T14:21:17.183Z,36.11
2022-08-18T14:24:14.341Z,36.24
2022-08-18T14:26:49.970Z,36.08
2022-08-18T14:29:45.730Z,36.26
2022-08-18T14:32:06.487Z,36.32
2022-08-18T14:34:34.576Z,36.32
2022-08-18T14:37:03.439Z,35.97
2022-08-18T14:39:30.853Z,35.15
2022-08-18T14:41:58.563Z,35.18
2022-08-18T14:44:31.832Z,35.64
2022-08-18T14:47:00.121Z,35.76
2022-08-18T14:49:28.205Z,35.91
2022-08-18T14:51:59.737Z,36.15
2022-08-18T14:54:29.962Z,36.23
2022-08-18T14:56:59.852Z,36.08
2022-08-18T14:59:30.920Z,36.13
2022-08-18T15:02:02.487Z,35.57
2022-08-18T15:04:29.856Z,35.85
2022-08-18T15:06:57.735Z,36.10
2022-08-18T15:09:27.289Z,36.32
2022-08-18T15:11:56.215Z,36.35
2022-08-18T15:14:32.942Z,35.58
2022-08-18T15:17:11.954Z,35.69
2022-08-18T15:20:00.641Z,35.79
2022-08-18T15:22:47.769Z,35.89
2022-08-18T15:25:34.283Z,36.05
2022-08-18T15:28:02.111Z,36.03
2022-08-18T15:30:29.564Z,36.05
2022-08-18T15:32:57.677Z,36.10
2022-08-18T15:35:25.322Z,35.47
2022-08-18T15:37:54.666Z,35.95
2022-08-18T15:40:31.093Z,35.75
2022-08-18T15:43:10.337Z,36.10
2022-08-18T15:45:43.301Z,35.68
2022-08-18T15:48:19.276Z,36.02
2022-08-18T15:50:50.978Z,35.64
2022-08-18T15:53:23.350Z,35.86
2022-08-18T15:55:50.801Z,35.97
2022-08-18T15:58:22.573Z,35.85
2022-08-18T16:00:54.501Z,35.92
2022-08-18T16:03:22.174Z,35.83
2022-08-18T16:05:52.609Z,35.77
2022-08-18T16:08:22.138Z,35.69
2022-08-18T16:10:49.843Z,35.44
2022-08-18T16:13:17.570Z,35.73
2022-08-18T16:15:46.872Z,35.49
2022-08-18T16:18:15.565Z,35.65
2022-08-18T16:20:43.481Z,35.65
2022-08-18T16:23:12.310Z,35.41
2022-08-18T16:25:40.997Z,35.49
2022-08-18T16:28:09.125Z,35.47
2022-08-18T16:30:36.504Z,35.42
2022-08-18T16:33:05.193Z,35.29
2022-08-18T16:35:32.861Z,35.38
2022-08-18T16:38:08.589Z,35.46
2022-08-18T16:40:36.582Z,35.36
2022-08-18T16:43:04.838Z,35.24
2022-08-18T16:45:33.654Z,35.25
2022-08-18T16:48:02.309Z,35.26
2022-08-18T16:50:30.012Z,35.15
2022-08-18T16:52:57.689Z,35.14
2022-08-18T16:55:25.350Z,35.00
2022-08-18T16:58:15.335Z,34.98
2022-08-18T17:01:01.926Z,34.91
2022-08-18T17:03:48.068Z,34.77
2022-08-18T17:06:17.426Z,34.67
2022-08-18T17:08:44.806Z,34.59
2022-08-18T17:11:17.790Z,34.36
2022-08-18T17:13:46.213Z,34.39
2022-08-18T17:16:13.656Z,34.26
2022-08-18T17:18:41.316Z,34.24
2022-08-18T17:21:10.682Z,34.11
2022-08-18T17:23:39.177Z,33.92
2022-08-18T17:26:08.140Z,33.82
2022-08-18T17:28:50.148Z,33.70
2022-08-18T17:31:21.251Z,33.55
2022-08-18T17:33:49.346Z,33.49
2022-08-18T17:36:23.350Z,33.44
2022-08-18T17:38:57.312Z,33.31
2022-08-18T17:41:25.436Z,33.29
2022-08-18T17:43:55.747Z,33.34
2022-08-18T17:46:30.208Z,32.92
2022-08-18T17:49:22.526Z,32.88
2022-08-18T17:51:55.132Z,32.83
2022-08-18T17:54:39.293Z,32.58
2022-08-18T17:57:15.264Z,32.63
2022-08-18T18:00:06.355Z,32.63
2022-08-18T18:02:40.134Z,32.68
2022-08-18T18:05:11.148Z,32.44
2022-08-18T18:07:39.655Z,32.20
2022-08-18T18:10:10.883Z,32.28
2022-08-18T18:12:38.821Z,32.17
2022-08-18T18:15:12.205Z,32.10
2022-08-18T18:17:41.263Z,31.99
2022-08-18T18:20:16.464Z,32.03
2022-08-18T18:22:44.985Z,31.99
2022-08-18T18:25:12.726Z,31.92
2022-08-18T18:27:41.840Z,31.73
2022-08-18T18:30:19.248Z,31.68
2022-08-18T18:33:03.468Z,31.78
2022-08-18T18:35:34.153Z,31.46
2022-08-18T18:38:07.226Z,31.54
2022-08-18T18:40:39.897Z,31.47
2022-08-18T18:43:22.295Z,31.39
2022-08-18T18:46:18.585Z,31.30
2022-08-18T18:48:56.607Z,31.16
2022-08-18T18:51:33.263Z,31.12
2022-08-18T18:54:49.982Z,31.06
2022-08-18T18:57:31.908Z,31.03
2022-08-18T19:00:19.637Z,30.96
2022-08-18T19:03:28.880Z,30.96
2022-08-18T19:06:30.183Z,31.06
2022-08-18T19:09:04.085Z,30.64
2022-08-18T19:11:43.077Z,30.57
2022-08-18T19:14:14.808Z,30.58
2022-08-18T19:17:04.494Z,30.67
2022-08-18T19:19:39.338Z,30.63
2022-08-18T19:22:38.436Z,30.91
2022-08-18T19:25:13.479Z,30.68
2022-08-18T19:27:45.594Z,30.57
2022-08-18T19:30:14.236Z,30.15
2022-08-18T19:32:44.431Z,30.26
2022-08-18T19:35:23.065Z,30.17
2022-08-18T19:38:19.141Z,30.12
2022-08-18T19:40:49.270Z,30.29
2022-08-18T19:43:42.440Z,30.32
2022-08-18T19:46:27.613Z,30.38
2022-08-18T19:49:05.398Z,30.12
2022-08-18T19:51:40.773Z,30.23
2022-08-18T19:55:00.230Z,30.09
2022-08-18T19:57:43.286Z,29.91
2022-08-18T20:00:12.222Z,29.80
2022-08-18T20:03:04.025Z,29.73
2022-08-18T20:05:36.365Z,29.98
2022-08-18T20:08:28.624Z,29.92
2022-08-18T20:11:21.366Z,29.93
2022-08-18T20:14:13.285Z,29.99
2022-08-18T20:16:44.915Z,29.90
2022-08-18T20:19:37.359Z,29.89
2022-08-18T20:22:16.004Z,29.77
2022-08-18T20:24:50.460Z,29.67
2022-08-18T20:27:30.225Z,29.83
2022-08-18T20:30:21.304Z,29.88
2022-08-18T20:33:13.901Z,29.39
2022-08-18T20:36:04.136Z,29.50
2022-08-18T20:38:36.289Z,29.85
2022-08-18T20:41:19.836Z,29.93
2022-08-18T20:43:50.269Z,30.00
2022-08-18T20:46:51.638Z,30.12
2022-08-18T20:49:43.626Z,30.15
2022-08-18T20:52:37.284Z,30.13
2022-08-18T20:55:20.057Z,30.16
2022-08-18T20:57:47.483Z,30.15
2022-08-18T21:00:26.915Z,30.23
2022-08-18T21:02:59.107Z,30.14
2022-08-18T21:05:39.128Z,30.00
2022-08-18T21:08:19.711Z,30.13
2022-08-18T21:11:08.367Z,30.16
2022-08-18T21:13:42.454Z,30.08
2022-08-18T21:16:12.132Z,30.20
2022-08-18T21:18:40.892Z,30.09
2022-08-18T21:21:14.437Z,29.73
2022-08-18T21:23:51.091Z,30.19
2022-08-18T21:26:18.480Z,30.03
2022-08-18T21:28:47.979Z,29.61
2022-08-18T21:31:43.681Z,29.79
2022-08-18T21:34:18.547Z,29.89
2022-08-18T21:36:54.091Z,30.07
2022-08-18T21:39:21.842Z,29.96
2022-08-18T21:41:54.414Z,29.83
2022-08-18T21:44:32.849Z,29.95
2022-08-18T21:47:05.698Z,29.93
2022-08-18T21:49:33.929Z,29.92
2022-08-18T21:52:01.590Z,30.01
2022-08-18T21:54:30.425Z,29.98
2022-08-18T21:57:18.345Z,29.99
2022-08-18T22:00:13.547Z,29.76
2022-08-18T22:02:41.472Z,29.88
2022-08-18T22:05:10.445Z,30.00
2022-08-18T22:07:46.006Z,30.04
2022-08-18T22:10:47.668Z,29.71
2022-08-18T22:13:39.085Z,29.71
2022-08-18T22:16:30.799Z,29.76
2022-08-18T22:19:06.392Z,29.55
2022-08-18T22:21:47.022Z,29.61
2022-08-18T22:24:21.929Z,29.56
2022-08-18T22:27:08.594Z,29.43
2022-08-18T22:29:51.173Z,29.52
2022-08-18T22:32:21.366Z,29.48
2022-08-18T22:34:50.264Z,29.24
2022-08-18T22:37:25.579Z,29.28
2022-08-18T22:39:58.383Z,29.19
2022-08-18T22:42:28.166Z,29.38
2022-08-18T22:44:59.086Z,29.26
2022-08-18T22:47:30.440Z,29.11
2022-08-18T22:50:01.875Z,29.24
2022-08-18T22:52:31.254Z,29.22
2022-08-18T22:54:59.314Z,29.11
2022-08-18T22:57:34.579Z,29.30
2022-08-18T23:00:12.582Z,29.08
2022-08-18T23:02:40.602Z,29.02
2022-08-18T23:05:08.245Z,28.76
2022-08-18T23:07:35.712Z,28.96
2022-08-18T23:10:08.268Z,28.96
2022-08-18T23:12:43.025Z,28.98
2022-08-18T23:15:11.585Z,28.53
2022-08-18T23:17:40.629Z,28.77
2022-08-18T23:20:11.348Z,29.01
2022-08-18T23:22:39.766Z,28.52
2022-08-18T23:25:08.997Z,28.49
2022-08-18T23:27:36.833Z,28.29
2022-08-18T23:30:05.013Z,28.63
2022-08-18T23:32:33.386Z,28.67
2022-08-18T23:35:00.876Z,28.70
2022-08-18T23:37:28.653Z,28.30
2022-08-18T23:39:56.184Z,28.89
2022-08-18T23:42:24.827Z,28.98
2022-08-18T23:44:52.474Z,28.31
2022-08-18T23:47:21.108Z,28.63
2022-08-18T23:49:48.619Z,28.58
2022-08-18T23:52:18.377Z,28.49
2022-08-18T23:54:45.763Z,28.48
2022-08-18T23:57:14.122Z,28.45
2022-08-18T23:59:41.760Z,28.53
